sensor_id;sensor_type;location;lat;lon;timestamp;pressure;altitude;pressure_sealevel;temperature;humidity
55010;BME280;40903;51.638;7.528;2022-12-18T00:02:06;102374.47;;;-9.37;95.86
55010;BME280;40903;51.638;7.528;2022-12-18T00:04:31;102364.06;;;-9.38;95.90
55010;BME280;40903;51.638;7.528;2022-12-18T00:06:56;102367.63;;;-9.39;95.95
55010;BME280;40903;51.638;7.528;2022-12-18T00:09:22;102372.19;;;-9.41;96.03
55010;BME280;40903;51.638;7.528;2022-12-18T00:11:47;102380.72;;;-9.38;95.95
55010;BME280;40903;51.638;7.528;2022-12-18T00:14:13;102378.94;;;-9.37;96.01
55010;BME280;40903;51.638;7.528;2022-12-18T00:16:40;102380.84;;;-9.39;96.05
55010;BME280;40903;51.638;7.528;2022-12-18T00:19:09;102380.00;;;-9.40;96.06
55010;BME280;40903;51.638;7.528;2022-12-18T00:21:42;102387.06;;;-9.40;96.14
55010;BME280;40903;51.638;7.528;2022-12-18T00:24:09;102380.97;;;-9.41;96.09
55010;BME280;40903;51.638;7.528;2022-12-18T00:26:35;102382.91;;;-9.43;96.02
55010;BME280;40903;51.638;7.528;2022-12-18T00:29:05;102394.53;;;-9.45;96.09
55010;BME280;40903;51.638;7.528;2022-12-18T00:31:31;102396.47;;;-9.47;95.93
55010;BME280;40903;51.638;7.528;2022-12-18T00:33:57;102385.91;;;-9.47;95.90
55010;BME280;40903;51.638;7.528;2022-12-18T00:36:25;102383.38;;;-9.48;95.95
55010;BME280;40903;51.638;7.528;2022-12-18T00:38:53;102382.53;;;-9.49;95.87
55010;BME280;40903;51.638;7.528;2022-12-18T00:41:18;102388.78;;;-9.50;95.83
55010;BME280;40903;51.638;7.528;2022-12-18T00:44:03;102383.50;;;-9.50;95.77
55010;BME280;40903;51.638;7.528;2022-12-18T00:46:29;102394.31;;;-9.53;95.64
55010;BME280;40903;51.638;7.528;2022-12-18T00:48:54;102393.72;;;-9.56;95.67
55010;BME280;40903;51.638;7.528;2022-12-18T00:51:20;102383.00;;;-9.55;95.69
55010;BME280;40903;51.638;7.528;2022-12-18T00:53:45;102388.28;;;-9.55;95.53
55010;BME280;40903;51.638;7.528;2022-12-18T00:56:11;102386.75;;;-9.57;95.42
55010;BME280;40903;51.638;7.528;2022-12-18T00:58:37;102381.59;;;-9.59;95.37
55010;BME280;40903;51.638;7.528;2022-12-18T01:01:04;102378.22;;;-9.61;95.42
55010;BME280;40903;51.638;7.528;2022-12-18T01:03:30;102386.25;;;-9.62;95.30
55010;BME280;40903;51.638;7.528;2022-12-18T01:05:56;102380.25;;;-9.64;95.37
55010;BME280;40903;51.638;7.528;2022-12-18T01:08:22;102380.63;;;-9.69;95.13
55010;BME280;40903;51.638;7.528;2022-12-18T01:10:47;102379.78;;;-9.69;95.09
55010;BME280;40903;51.638;7.528;2022-12-18T01:13:12;102376.44;;;-9.71;95.20
55010;BME280;40903;51.638;7.528;2022-12-18T01:15:38;102374.03;;;-9.74;95.20
55010;BME280;40903;51.638;7.528;2022-12-18T01:18:06;102366.94;;;-9.74;95.18
55010;BME280;40903;51.638;7.528;2022-12-18T01:20:32;102368.88;;;-9.76;95.23
55010;BME280;40903;51.638;7.528;2022-12-18T01:22:57;102374.16;;;-9.76;95.18
55010;BME280;40903;51.638;7.528;2022-12-18T01:25:23;102380.38;;;-9.77;95.26
55010;BME280;40903;51.638;7.528;2022-12-18T01:27:48;102383.13;;;-9.78;95.11
55010;BME280;40903;51.638;7.528;2022-12-18T01:30:13;102383.28;;;-9.80;94.97
55010;BME280;40903;51.638;7.528;2022-12-18T01:32:39;102381.59;;;-9.81;94.83
55010;BME280;40903;51.638;7.528;2022-12-18T01:35:04;102386.97;;;-9.82;94.78
55010;BME280;40903;51.638;7.528;2022-12-18T01:37:30;102385.41;;;-9.85;94.60
55010;BME280;40903;51.638;7.528;2022-12-18T01:39:56;102379.41;;;-9.87;94.41
55010;BME280;40903;51.638;7.528;2022-12-18T01:42:21;102370.78;;;-9.89;94.39
55010;BME280;40903;51.638;7.528;2022-12-18T01:45:08;102367.44;;;-9.91;94.39
55010;BME280;40903;51.638;7.528;2022-12-18T01:47:49;102361.19;;;-9.90;94.55
55010;BME280;40903;51.638;7.528;2022-12-18T01:52:49;102355.09;;;-9.90;94.77
55010;BME280;40903;51.638;7.528;2022-12-18T01:55:19;102359.41;;;-9.89;94.77
55010;BME280;40903;51.638;7.528;2022-12-18T01:57:46;102364.69;;;-9.89;94.79
55010;BME280;40903;51.638;7.528;2022-12-18T02:00:14;102378.59;;;-9.87;94.95
55010;BME280;40903;51.638;7.528;2022-12-18T02:02:41;102376.78;;;-9.87;94.97
55010;BME280;40903;51.638;7.528;2022-12-18T02:05:09;102383.88;;;-9.87;94.87
55010;BME280;40903;51.638;7.528;2022-12-18T02:07:48;102379.75;;;-9.91;94.71
55010;BME280;40903;51.638;7.528;2022-12-18T02:10:27;102373.56;;;-9.90;94.66
55010;BME280;40903;51.638;7.528;2022-12-18T02:13:25;102369.34;;;-9.93;94.86
55010;BME280;40903;51.638;7.528;2022-12-18T02:16:04;102365.03;;;-9.94;94.88
55010;BME280;40903;51.638;7.528;2022-12-18T02:18:37;102367.91;;;-9.97;94.76
55010;BME280;40903;51.638;7.528;2022-12-18T02:24:34;102359.03;;;-9.96;94.80
55010;BME280;40903;51.638;7.528;2022-12-18T02:27:05;102354.72;;;-9.97;94.67
55010;BME280;40903;51.638;7.528;2022-12-18T02:29:44;102347.78;;;-9.98;94.67
55010;BME280;40903;51.638;7.528;2022-12-18T02:32:15;102348.59;;;-9.97;94.70
55010;BME280;40903;51.638;7.528;2022-12-18T02:34:43;102342.72;;;-10.01;94.53
55010;BME280;40903;51.638;7.528;2022-12-18T02:37:12;102347.19;;;-10.01;94.56
55010;BME280;40903;51.638;7.528;2022-12-18T02:39:41;102346.47;;;-10.03;94.61
55010;BME280;40903;51.638;7.528;2022-12-18T02:42:08;102349.13;;;-10.03;94.66
55010;BME280;40903;51.638;7.528;2022-12-18T02:44:44;102351.88;;;-10.05;94.61
55010;BME280;40903;51.638;7.528;2022-12-18T02:47:11;102351.88;;;-10.05;94.63
55010;BME280;40903;51.638;7.528;2022-12-18T02:52:37;102350.28;;;-10.07;94.54
55010;BME280;40903;51.638;7.528;2022-12-18T02:58:02;102351.50;;;-10.11;94.54
55010;BME280;40903;51.638;7.528;2022-12-18T03:00:53;102347.06;;;-10.11;94.54
55010;BME280;40903;51.638;7.528;2022-12-18T03:03:46;102340.13;;;-10.12;94.60
55010;BME280;40903;51.638;7.528;2022-12-18T03:06:35;102345.41;;;-10.12;94.81
55010;BME280;40903;51.638;7.528;2022-12-18T03:09:07;102351.50;;;-10.11;94.85
55010;BME280;40903;51.638;7.528;2022-12-18T03:11:38;102354.84;;;-10.09;94.97
55010;BME280;40903;51.638;7.528;2022-12-18T03:14:26;102351.25;;;-10.08;95.13
55010;BME280;40903;51.638;7.528;2022-12-18T03:16:59;102341.56;;;-10.08;94.95
55010;BME280;40903;51.638;7.528;2022-12-18T03:19:28;102340.94;;;-10.11;94.93
55010;BME280;40903;51.638;7.528;2022-12-18T03:21:56;102344.44;;;-10.11;95.11
55010;BME280;40903;51.638;7.528;2022-12-18T03:24:23;102353.19;;;-10.10;95.15
55010;BME280;40903;51.638;7.528;2022-12-18T03:26:56;102345.50;;;-10.13;94.98
55010;BME280;40903;51.638;7.528;2022-12-18T03:29:48;102356.16;;;-10.15;95.00
55010;BME280;40903;51.638;7.528;2022-12-18T03:32:21;102365.88;;;-10.15;95.10
55010;BME280;40903;51.638;7.528;2022-12-18T03:34:50;102352.81;;;-10.17;95.06
55010;BME280;40903;51.638;7.528;2022-12-18T03:37:16;102345.63;;;-10.15;95.35
55010;BME280;40903;51.638;7.528;2022-12-18T03:39:42;102343.94;;;-10.16;95.34
55010;BME280;40903;51.638;7.528;2022-12-18T03:42:17;102340.34;;;-10.15;95.38
55010;BME280;40903;51.638;7.528;2022-12-18T03:50:29;102341.28;;;-10.16;95.56
55010;BME280;40903;51.638;7.528;2022-12-18T03:55:35;102333.19;;;-10.13;95.61
55010;BME280;40903;51.638;7.528;2022-12-18T03:58:02;102341.09;;;-10.13;95.58
55010;BME280;40903;51.638;7.528;2022-12-18T04:00:29;102346.56;;;-10.16;95.56
55010;BME280;40903;51.638;7.528;2022-12-18T04:02:56;102345.63;;;-10.15;95.60
55010;BME280;40903;51.638;7.528;2022-12-18T04:05:25;102347.44;;;-10.15;95.68
55010;BME280;40903;51.638;7.528;2022-12-18T04:07:53;102352.81;;;-10.17;95.81
55010;BME280;40903;51.638;7.528;2022-12-18T04:10:19;102350.06;;;-10.15;95.78
55010;BME280;40903;51.638;7.528;2022-12-18T04:12:44;102347.44;;;-10.15;95.76
55010;BME280;40903;51.638;7.528;2022-12-18T04:15:11;102344.78;;;-10.15;95.99
55010;BME280;40903;51.638;7.528;2022-12-18T04:17:37;102339.50;;;-10.15;95.64
55010;BME280;40903;51.638;7.528;2022-12-18T04:20:03;102330.66;;;-10.14;95.76
55010;BME280;40903;51.638;7.528;2022-12-18T04:22:29;102332.31;;;-10.13;95.75
55010;BME280;40903;51.638;7.528;2022-12-18T04:24:54;102334.00;;;-10.12;95.97
55010;BME280;40903;51.638;7.528;2022-12-18T04:27:20;102331.13;;;-10.09;96.05
55010;BME280;40903;51.638;7.528;2022-12-18T04:29:46;102336.28;;;-10.08;96.01
55010;BME280;40903;51.638;7.528;2022-12-18T04:32:11;102328.38;;;-10.08;96.18
55010;BME280;40903;51.638;7.528;2022-12-18T04:34:36;102325.75;;;-10.08;96.40
55010;BME280;40903;51.638;7.528;2022-12-18T04:37:02;102335.22;;;-10.05;96.27
55010;BME280;40903;51.638;7.528;2022-12-18T04:39:27;102329.81;;;-10.04;96.51
55010;BME280;40903;51.638;7.528;2022-12-18T04:41:52;102334.81;;;-10.01;96.93
55010;BME280;40903;51.638;7.528;2022-12-18T04:44:18;102331.94;;;-9.98;96.95
55010;BME280;40903;51.638;7.528;2022-12-18T04:46:43;102333.25;;;-9.92;97.45
55010;BME280;40903;51.638;7.528;2022-12-18T04:49:09;102334.91;;;-9.91;97.53
55010;BME280;40903;51.638;7.528;2022-12-18T04:51:36;102338.41;;;-9.91;97.62
55010;BME280;40903;51.638;7.528;2022-12-18T04:54:01;102335.66;;;-9.89;97.84
55010;BME280;40903;51.638;7.528;2022-12-18T04:56:27;102327.63;;;-9.88;98.02
55010;BME280;40903;51.638;7.528;2022-12-18T04:58:52;102338.88;;;-9.86;98.12
55010;BME280;40903;51.638;7.528;2022-12-18T05:01:18;102339.72;;;-9.85;98.21
55010;BME280;40903;51.638;7.528;2022-12-18T05:03:43;102331.09;;;-9.87;98.20
55010;BME280;40903;51.638;7.528;2022-12-18T05:06:09;102329.28;;;-9.87;98.23
55010;BME280;40903;51.638;7.528;2022-12-18T05:08:35;102324.00;;;-9.87;98.18
55010;BME280;40903;51.638;7.528;2022-12-18T05:11:05;102322.22;;;-9.86;98.34
55010;BME280;40903;51.638;7.528;2022-12-18T05:13:31;102324.63;;;-9.83;98.49
55010;BME280;40903;51.638;7.528;2022-12-18T05:15:57;102316.81;;;-9.85;98.40
55010;BME280;40903;51.638;7.528;2022-12-18T05:18:23;102311.53;;;-9.85;98.56
55010;BME280;40903;51.638;7.528;2022-12-18T05:20:50;102308.91;;;-9.85;98.49
55010;BME280;40903;51.638;7.528;2022-12-18T05:23:15;102297.38;;;-9.84;98.78
55010;BME280;40903;51.638;7.528;2022-12-18T05:25:40;102304.13;;;-9.80;98.72
55010;BME280;40903;51.638;7.528;2022-12-18T05:28:06;102299.66;;;-9.79;98.85
55010;BME280;40903;51.638;7.528;2022-12-18T05:30:31;102305.78;;;-9.79;98.82
55010;BME280;40903;51.638;7.528;2022-12-18T05:32:56;102298.00;;;-9.80;98.84
55010;BME280;40903;51.638;7.528;2022-12-18T05:35:22;102305.78;;;-9.79;98.93
55010;BME280;40903;51.638;7.528;2022-12-18T05:37:47;102298.84;;;-9.80;98.98
55010;BME280;40903;51.638;7.528;2022-12-18T05:40:12;102293.56;;;-9.80;99.20
55010;BME280;40903;51.638;7.528;2022-12-18T05:42:38;102300.53;;;-9.79;99.22
55010;BME280;40903;51.638;7.528;2022-12-18T05:45:04;102292.59;;;-9.79;99.30
55010;BME280;40903;51.638;7.528;2022-12-18T05:47:30;102299.56;;;-9.78;99.24
55010;BME280;40903;51.638;7.528;2022-12-18T05:49:55;102297.88;;;-9.79;99.17
55010;BME280;40903;51.638;7.528;2022-12-18T05:52:20;102309.25;;;-9.78;99.23
55010;BME280;40903;51.638;7.528;2022-12-18T05:54:46;102312.03;;;-9.80;99.19
55010;BME280;40903;51.638;7.528;2022-12-18T05:57:11;102315.63;;;-9.81;99.19
55010;BME280;40903;51.638;7.528;2022-12-18T05:59:36;102322.59;;;-9.80;99.16
55010;BME280;40903;51.638;7.528;2022-12-18T06:02:02;102322.44;;;-9.78;99.29
55010;BME280;40903;51.638;7.528;2022-12-18T06:04:30;102322.34;;;-9.77;99.18
55010;BME280;40903;51.638;7.528;2022-12-18T06:06:55;102323.41;;;-9.79;99.13
55010;BME280;40903;51.638;7.528;2022-12-18T06:09:21;102327.16;;;-9.82;99.02
55010;BME280;40903;51.638;7.528;2022-12-18T06:11:46;102326.28;;;-9.82;99.02
55010;BME280;40903;51.638;7.528;2022-12-18T06:14:11;102318.63;;;-9.85;98.83
55010;BME280;40903;51.638;7.528;2022-12-18T06:16:37;102324.00;;;-9.87;98.84
55010;BME280;40903;51.638;7.528;2022-12-18T06:19:04;102335.53;;;-9.88;98.89
55010;BME280;40903;51.638;7.528;2022-12-18T06:21:31;102344.28;;;-9.87;98.78
55010;BME280;40903;51.638;7.528;2022-12-18T06:23:57;102345.97;;;-9.86;99.07
55010;BME280;40903;51.638;7.528;2022-12-18T06:26:23;102344.16;;;-9.86;98.98
55010;BME280;40903;51.638;7.528;2022-12-18T06:28:48;102351.34;;;-9.88;98.88
55010;BME280;40903;51.638;7.528;2022-12-18T06:31:14;102346.94;;;-9.87;98.97
55010;BME280;40903;51.638;7.528;2022-12-18T06:33:39;102345.25;;;-9.88;98.85
55010;BME280;40903;51.638;7.528;2022-12-18T06:36:07;102347.91;;;-9.88;98.68
55010;BME280;40903;51.638;7.528;2022-12-18T06:38:34;102344.53;;;-9.90;98.58
55010;BME280;40903;51.638;7.528;2022-12-18T06:40:59;102348.13;;;-9.91;98.37
55010;BME280;40903;51.638;7.528;2022-12-18T06:43:25;102339.47;;;-9.93;98.46
55010;BME280;40903;51.638;7.528;2022-12-18T06:45:50;102358.66;;;-9.91;98.45
55010;BME280;40903;51.638;7.528;2022-12-18T06:48:20;102346.31;;;-9.91;98.59
55010;BME280;40903;51.638;7.528;2022-12-18T06:50:46;102348.72;;;-9.88;98.61
55010;BME280;40903;51.638;7.528;2022-12-18T06:53:11;102346.94;;;-9.87;98.59
55010;BME280;40903;51.638;7.528;2022-12-18T06:55:37;102345.13;;;-9.87;98.65
55010;BME280;40903;51.638;7.528;2022-12-18T06:58:02;102337.09;;;-9.85;98.80
55010;BME280;40903;51.638;7.528;2022-12-18T07:00:27;102342.03;;;-9.81;98.84
55010;BME280;40903;51.638;7.528;2022-12-18T07:02:53;102334.09;;;-9.81;98.84
55010;BME280;40903;51.638;7.528;2022-12-18T07:05:18;102337.56;;;-9.80;98.87
55010;BME280;40903;51.638;7.528;2022-12-18T07:07:43;102337.47;;;-9.79;98.94
55010;BME280;40903;51.638;7.528;2022-12-18T07:10:09;102331.22;;;-9.78;99.06
55010;BME280;40903;51.638;7.528;2022-12-18T07:12:35;102331.22;;;-9.78;99.09
55010;BME280;40903;51.638;7.528;2022-12-18T07:15:00;102330.25;;;-9.77;99.15
55010;BME280;40903;51.638;7.528;2022-12-18T07:17:26;102330.97;;;-9.75;99.25
55010;BME280;40903;51.638;7.528;2022-12-18T07:19:51;102332.41;;;-9.71;99.37
55010;BME280;40903;51.638;7.528;2022-12-18T07:22:16;102326.16;;;-9.70;99.44
55010;BME280;40903;51.638;7.528;2022-12-18T07:24:42;102325.09;;;-9.67;99.45
55010;BME280;40903;51.638;7.528;2022-12-18T07:27:07;102324.00;;;-9.65;99.68
55010;BME280;40903;51.638;7.528;2022-12-18T07:29:32;102320.16;;;-9.61;99.81
55010;BME280;40903;51.638;7.528;2022-12-18T07:31:57;102323.25;;;-9.56;100.00
55010;BME280;40903;51.638;7.528;2022-12-18T07:34:23;102329.16;;;-9.52;100.00
55010;BME280;40903;51.638;7.528;2022-12-18T07:36:48;102322.53;;;-9.47;100.00
55010;BME280;40903;51.638;7.528;2022-12-18T07:39:13;102317.72;;;-9.42;100.00
55010;BME280;40903;51.638;7.528;2022-12-18T07:41:39;102314.81;;;-9.39;100.00
55010;BME280;40903;51.638;7.528;2022-12-18T07:44:11;102314.47;;;-9.35;100.00
55010;BME280;40903;51.638;7.528;2022-12-18T07:46:36;102312.16;;;-9.28;100.00
55010;BME280;40903;51.638;7.528;2022-12-18T07:49:02;102307.47;;;-9.25;100.00
55010;BME280;40903;51.638;7.528;2022-12-18T07:51:27;102317.69;;;-9.20;100.00
55010;BME280;40903;51.638;7.528;2022-12-18T07:53:52;102314.53;;;-9.14;100.00
55010;BME280;40903;51.638;7.528;2022-12-18T07:56:18;102315.47;;;-9.04;100.00
55010;BME280;40903;51.638;7.528;2022-12-18T07:58:46;102315.66;;;-8.96;100.00
55010;BME280;40903;51.638;7.528;2022-12-18T08:01:12;102316.69;;;-8.88;100.00
55010;BME280;40903;51.638;7.528;2022-12-18T08:03:40;102323.28;;;-8.82;100.00
55010;BME280;40903;51.638;7.528;2022-12-18T08:06:07;102328.06;;;-8.76;100.00
55010;BME280;40903;51.638;7.528;2022-12-18T08:08:33;102320.22;;;-8.67;100.00
55010;BME280;40903;51.638;7.528;2022-12-18T08:10:59;102314.16;;;-8.58;100.00
55010;BME280;40903;51.638;7.528;2022-12-18T08:13:25;102314.94;;;-8.46;100.00
55010;BME280;40903;51.638;7.528;2022-12-18T08:16:04;102307.19;;;-8.38;100.00
55010;BME280;40903;51.638;7.528;2022-12-18T08:18:29;102306.03;;;-8.25;100.00
55010;BME280;40903;51.638;7.528;2022-12-18T08:20:56;102304.09;;;-8.13;100.00
55010;BME280;40903;51.638;7.528;2022-12-18T08:23:22;102295.81;;;-7.99;100.00
55010;BME280;40903;51.638;7.528;2022-12-18T08:25:47;102292.53;;;-7.82;100.00
55010;BME280;40903;51.638;7.528;2022-12-18T08:28:16;102295.50;;;-7.66;100.00
55010;BME280;40903;51.638;7.528;2022-12-18T08:30:41;102287.03;;;-7.51;100.00
55010;BME280;40903;51.638;7.528;2022-12-18T08:33:07;102282.91;;;-7.35;100.00
55010;BME280;40903;51.638;7.528;2022-12-18T08:35:35;102279.00;;;-7.21;100.00
55010;BME280;40903;51.638;7.528;2022-12-18T08:38:01;102270.78;;;-7.09;100.00
55010;BME280;40903;51.638;7.528;2022-12-18T08:40:27;102254.75;;;-6.98;100.00
55010;BME280;40903;51.638;7.528;2022-12-18T08:42:52;102252.63;;;-6.85;100.00
55010;BME280;40903;51.638;7.528;2022-12-18T08:45:36;102244.94;;;-6.69;100.00
55010;BME280;40903;51.638;7.528;2022-12-18T08:48:02;102236.41;;;-6.53;100.00
55010;BME280;40903;51.638;7.528;2022-12-18T08:50:27;102228.69;;;-6.37;100.00
55010;BME280;40903;51.638;7.528;2022-12-18T08:52:52;102229.75;;;-6.21;100.00
55010;BME280;40903;51.638;7.528;2022-12-18T08:55:18;102231.06;;;-6.07;100.00
55010;BME280;40903;51.638;7.528;2022-12-18T08:57:48;102236.88;;;-5.94;100.00
55010;BME280;40903;51.638;7.528;2022-12-18T09:00:13;102242.44;;;-5.88;100.00
55010;BME280;40903;51.638;7.528;2022-12-18T09:02:38;102237.38;;;-5.81;100.00
55010;BME280;40903;51.638;7.528;2022-12-18T09:05:04;102234.09;;;-5.76;100.00
55010;BME280;40903;51.638;7.528;2022-12-18T09:07:30;102237.69;;;-5.67;100.00
55010;BME280;40903;51.638;7.528;2022-12-18T09:09:55;102249.41;;;-5.60;100.00
55010;BME280;40903;51.638;7.528;2022-12-18T09:12:40;102249.34;;;-5.51;100.00
55010;BME280;40903;51.638;7.528;2022-12-18T09:15:06;102246.59;;;-5.41;100.00
55010;BME280;40903;51.638;7.528;2022-12-18T09:17:31;102240.25;;;-5.31;100.00
55010;BME280;40903;51.638;7.528;2022-12-18T09:19:57;102233.84;;;-5.20;100.00
55010;BME280;40903;51.638;7.528;2022-12-18T09:22:22;102222.53;;;-5.05;100.00
55010;BME280;40903;51.638;7.528;2022-12-18T09:24:48;102222.31;;;-4.94;100.00
55010;BME280;40903;51.638;7.528;2022-12-18T09:27:13;102223.91;;;-4.83;100.00
55010;BME280;40903;51.638;7.528;2022-12-18T09:29:39;102213.47;;;-4.77;100.00
55010;BME280;40903;51.638;7.528;2022-12-18T09:32:04;102210.72;;;-4.67;100.00
55010;BME280;40903;51.638;7.528;2022-12-18T09:34:30;102215.09;;;-4.58;100.00
55010;BME280;40903;51.638;7.528;2022-12-18T09:36:56;102219.13;;;-4.54;100.00
55010;BME280;40903;51.638;7.528;2022-12-18T09:39:22;102229.97;;;-4.48;100.00
55010;BME280;40903;51.638;7.528;2022-12-18T09:41:53;102222.50;;;-4.44;100.00
55010;BME280;40903;51.638;7.528;2022-12-18T09:44:23;102221.03;;;-4.39;100.00
55010;BME280;40903;51.638;7.528;2022-12-18T09:47:18;102219.25;;;-4.30;100.00
55010;BME280;40903;51.638;7.528;2022-12-18T09:49:50;102228.50;;;-4.17;100.00
55010;BME280;40903;51.638;7.528;2022-12-18T09:52:32;102219.41;;;-4.06;100.00
55010;BME280;40903;51.638;7.528;2022-12-18T09:55:03;102215.47;;;-3.94;100.00
55010;BME280;40903;51.638;7.528;2022-12-18T09:57:33;102217.66;;;-3.82;100.00
55010;BME280;40903;51.638;7.528;2022-12-18T10:00:08;102202.88;;;-3.69;100.00
55010;BME280;40903;51.638;7.528;2022-12-18T10:02:38;102211.75;;;-3.60;100.00
55010;BME280;40903;51.638;7.528;2022-12-18T10:05:11;102218.94;;;-3.53;100.00
55010;BME280;40903;51.638;7.528;2022-12-18T10:07:49;102208.94;;;-3.43;100.00
55010;BME280;40903;51.638;7.528;2022-12-18T10:12:59;102208.63;;;-3.24;100.00
55010;BME280;40903;51.638;7.528;2022-12-18T10:18:06;102204.16;;;-3.07;100.00
55010;BME280;40903;51.638;7.528;2022-12-18T10:20:49;102196.00;;;-2.98;100.00
55010;BME280;40903;51.638;7.528;2022-12-18T10:23:35;102187.66;;;-2.87;100.00
55010;BME280;40903;51.638;7.528;2022-12-18T10:26:06;102180.31;;;-2.77;100.00
55010;BME280;40903;51.638;7.528;2022-12-18T10:28:36;102179.97;;;-2.66;100.00
55010;BME280;40903;51.638;7.528;2022-12-18T10:31:05;102180.78;;;-2.57;100.00
55010;BME280;40903;51.638;7.528;2022-12-18T13:12:52;101956.88;;;-1.19;100.00
55010;BME280;40903;51.638;7.528;2022-12-18T13:15:23;101948.94;;;-1.13;100.00
55010;BME280;40903;51.638;7.528;2022-12-18T13:18:03;101954.13;;;-1.11;99.93
55010;BME280;40903;51.638;7.528;2022-12-18T13:20:34;101950.72;;;-1.05;99.40
55010;BME280;40903;51.638;7.528;2022-12-18T13:23:00;101952.00;;;-1.01;99.77
55010;BME280;40903;51.638;7.528;2022-12-18T13:25:32;101953.94;;;-0.95;99.76
55010;BME280;40903;51.638;7.528;2022-12-18T13:28:11;101958.72;;;-0.91;99.82
55010;BME280;40903;51.638;7.528;2022-12-18T13:48:35;101944.06;;;-0.80;99.56
55010;BME280;40903;51.638;7.528;2022-12-18T13:51:06;101947.38;;;-0.78;99.66
55010;BME280;40903;51.638;7.528;2022-12-18T13:53:43;101941.53;;;-0.82;99.28
55010;BME280;40903;51.638;7.528;2022-12-18T13:56:15;101938.50;;;-0.79;99.80
55010;BME280;40903;51.638;7.528;2022-12-18T13:58:41;101942.41;;;-0.81;99.61
55010;BME280;40903;51.638;7.528;2022-12-18T14:01:21;101954.56;;;-0.79;99.73
55010;BME280;40903;51.638;7.528;2022-12-18T14:03:48;101944.47;;;-0.77;99.93
55010;BME280;40903;51.638;7.528;2022-12-18T14:06:14;101939.34;;;-0.78;99.66
55010;BME280;40903;51.638;7.528;2022-12-18T14:08:41;101936.91;;;-0.73;100.00
55010;BME280;40903;51.638;7.528;2022-12-18T14:11:19;101939.22;;;-0.70;99.96
55010;BME280;40903;51.638;7.528;2022-12-18T14:13:46;101934.69;;;-0.70;99.98
55010;BME280;40903;51.638;7.528;2022-12-18T14:16:14;101928.31;;;-0.69;99.97
55010;BME280;40903;51.638;7.528;2022-12-18T14:21:23;101924.81;;;-0.69;99.65
55010;BME280;40903;51.638;7.528;2022-12-18T14:24:11;101918.63;;;-0.70;99.54
55010;BME280;40903;51.638;7.528;2022-12-18T14:26:37;101914.47;;;-0.72;99.77
55010;BME280;40903;51.638;7.528;2022-12-18T14:29:29;101914.09;;;-0.69;99.97
55010;BME280;40903;51.638;7.528;2022-12-18T14:32:15;101907.72;;;-0.68;100.00
55010;BME280;40903;51.638;7.528;2022-12-18T14:37:14;101886.69;;;-0.71;100.00
55010;BME280;40903;51.638;7.528;2022-12-18T14:39:39;101885.03;;;-0.72;100.00
55010;BME280;40903;51.638;7.528;2022-12-18T14:42:05;101889.09;;;-0.76;100.00
55010;BME280;40903;51.638;7.528;2022-12-18T14:44:31;101876.47;;;-0.82;100.00
55010;BME280;40903;51.638;7.528;2022-12-18T14:46:56;101868.63;;;-0.84;100.00
55010;BME280;40903;51.638;7.528;2022-12-18T14:49:32;101859.75;;;-0.84;100.00
55010;BME280;40903;51.638;7.528;2022-12-18T14:52:15;101859.88;;;-0.92;100.00
55010;BME280;40903;51.638;7.528;2022-12-18T14:54:46;101853.69;;;-0.93;100.00
55010;BME280;40903;51.638;7.528;2022-12-18T14:57:34;101858.22;;;-0.93;100.00
55010;BME280;40903;51.638;7.528;2022-12-18T15:00:15;101843.19;;;-0.94;100.00
55010;BME280;40903;51.638;7.528;2022-12-18T15:02:42;101835.97;;;-0.94;100.00
55010;BME280;40903;51.638;7.528;2022-12-18T15:07:49;101820.75;;;-0.93;100.00
55010;BME280;40903;51.638;7.528;2022-12-18T15:10:20;101821.94;;;-0.96;100.00
55010;BME280;40903;51.638;7.528;2022-12-18T15:18:13;101818.63;;;-0.98;100.00
55010;BME280;40903;51.638;7.528;2022-12-18T15:20:52;101813.28;;;-0.98;100.00
55010;BME280;40903;51.638;7.528;2022-12-18T15:23:47;101818.00;;;-1.00;100.00
55010;BME280;40903;51.638;7.528;2022-12-18T15:26:15;101820.09;;;-0.95;100.00
55010;BME280;40903;51.638;7.528;2022-12-18T15:33:41;101804.47;;;-0.92;100.00
55010;BME280;40903;51.638;7.528;2022-12-18T15:36:12;101804.28;;;-0.90;100.00
55010;BME280;40903;51.638;7.528;2022-12-18T15:38:39;101798.94;;;-0.90;100.00
55010;BME280;40903;51.638;7.528;2022-12-18T15:41:14;101806.59;;;-0.87;100.00
55010;BME280;40903;51.638;7.528;2022-12-18T15:43:41;101806.59;;;-0.87;100.00
55010;BME280;40903;51.638;7.528;2022-12-18T15:46:12;101801.88;;;-0.85;100.00
55010;BME280;40903;51.638;7.528;2022-12-18T15:48:43;101803.53;;;-0.84;100.00
55010;BME280;40903;51.638;7.528;2022-12-18T15:51:15;101806.66;;;-0.81;100.00
55010;BME280;40903;51.638;7.528;2022-12-18T15:53:41;101794.28;;;-0.82;100.00
55010;BME280;40903;51.638;7.528;2022-12-18T15:56:10;101796.78;;;-0.80;100.00
55010;BME280;40903;51.638;7.528;2022-12-18T15:58:54;101797.44;;;-0.78;100.00
55010;BME280;40903;51.638;7.528;2022-12-18T16:01:22;101798.06;;;-0.76;100.00
55010;BME280;40903;51.638;7.528;2022-12-18T16:03:49;101779.50;;;-0.78;100.00
55010;BME280;40903;51.638;7.528;2022-12-18T16:06:15;101794.53;;;-0.77;100.00
55010;BME280;40903;51.638;7.528;2022-12-18T16:11:39;101779.31;;;-0.76;100.00
55010;BME280;40903;51.638;7.528;2022-12-18T16:14:27;101788.16;;;-0.76;100.00
55010;BME280;40903;51.638;7.528;2022-12-18T16:16:57;101785.50;;;-0.76;100.00
55010;BME280;40903;51.638;7.528;2022-12-18T16:19:23;101783.47;;;-0.74;100.00
55010;BME280;40903;51.638;7.528;2022-12-18T16:21:50;101784.28;;;-0.73;100.00
55010;BME280;40903;51.638;7.528;2022-12-18T16:24:18;101774.41;;;-0.73;100.00
55010;BME280;40903;51.638;7.528;2022-12-18T16:26:44;101778.75;;;-0.72;100.00
55010;BME280;40903;51.638;7.528;2022-12-18T16:29:09;101780.59;;;-0.72;100.00
55010;BME280;40903;51.638;7.528;2022-12-18T16:31:35;101773.19;;;-0.70;100.00
55010;BME280;40903;51.638;7.528;2022-12-18T16:34:22;101771.34;;;-0.70;100.00
55010;BME280;40903;51.638;7.528;2022-12-18T16:36:48;101772.38;;;-0.71;100.00
55010;BME280;40903;51.638;7.528;2022-12-18T16:39:14;101780.41;;;-0.71;100.00